sensor_id;sensor_type;location;lat;lon;timestamp;temperature;humidity
20803;DHT22;10562;-33.856;151.182;2022-07-05T00:02:04;15.30;99.90
20803;DHT22;10562;-33.856;151.182;2022-07-05T00:04:35;15.30;99.90
20803;DHT22;10562;-33.856;151.182;2022-07-05T00:07:06;15.30;99.90
20803;DHT22;10562;-33.856;151.182;2022-07-05T00:09:50;15.30;99.90
20803;DHT22;10562;-33.856;151.182;2022-07-05T00:12:22;15.30;99.90
20803;DHT22;10562;-33.856;151.182;2022-07-05T00:14:57;15.20;99.90
20803;DHT22;10562;-33.856;151.182;2022-07-05T00:17:28;15.20;99.90
20803;DHT22;10562;-33.856;151.182;2022-07-05T00:19:59;15.10;99.90
20803;DHT22;10562;-33.856;151.182;2022-07-05T00:22:30;15.20;99.90
20803;DHT22;10562;-33.856;151.182;2022-07-05T00:25:01;15.20;99.90
20803;DHT22;10562;-33.856;151.182;2022-07-05T00:27:31;15.20;99.90
20803;DHT22;10562;-33.856;151.182;2022-07-05T00:30:05;15.30;99.90
20803;DHT22;10562;-33.856;151.182;2022-07-05T00:32:36;15.30;99.90
20803;DHT22;10562;-33.856;151.182;2022-07-05T00:35:07;15.20;99.90
20803;DHT22;10562;-33.856;151.182;2022-07-05T00:37:38;15.20;99.90
20803;DHT22;10562;-33.856;151.182;2022-07-05T00:40:09;15.20;99.90
20803;DHT22;10562;-33.856;151.182;2022-07-05T00:42:40;15.30;99.90
20803;DHT22;10562;-33.856;151.182;2022-07-05T00:45:13;15.50;99.90
20803;DHT22;10562;-33.856;151.182;2022-07-05T00:47:44;15.60;99.90
20803;DHT22;10562;-33.856;151.182;2022-07-05T00:50:15;15.70;99.90
20803;DHT22;10562;-33.856;151.182;2022-07-05T00:52:46;15.70;99.90
20803;DHT22;10562;-33.856;151.182;2022-07-05T00:55:17;15.70;99.90
20803;DHT22;10562;-33.856;151.182;2022-07-05T00:57:48;15.70;99.90
20803;DHT22;10562;-33.856;151.182;2022-07-05T01:00:21;15.80;99.90
20803;DHT22;10562;-33.856;151.182;2022-07-05T01:02:53;15.90;99.90
20803;DHT22;10562;-33.856;151.182;2022-07-05T01:05:23;16.00;99.90
20803;DHT22;10562;-33.856;151.182;2022-07-05T01:07:54;16.10;99.90
20803;DHT22;10562;-33.856;151.182;2022-07-05T01:10:26;16.20;99.90
20803;DHT22;10562;-33.856;151.182;2022-07-05T01:12:57;16.30;99.90
20803;DHT22;10562;-33.856;151.182;2022-07-05T01:15:30;16.30;99.90
20803;DHT22;10562;-33.856;151.182;2022-07-05T01:18:02;16.30;99.90
20803;DHT22;10562;-33.856;151.182;2022-07-05T01:20:33;16.40;99.90
20803;DHT22;10562;-33.856;151.182;2022-07-05T01:23:06;16.40;99.90
20803;DHT22;10562;-33.856;151.182;2022-07-05T01:25:38;16.40;99.90
20803;DHT22;10562;-33.856;151.182;2022-07-05T01:28:09;16.40;99.90
20803;DHT22;10562;-33.856;151.182;2022-07-05T01:30:40;16.30;99.90
20803;DHT22;10562;-33.856;151.182;2022-07-05T01:33:11;16.20;99.90
20803;DHT22;10562;-33.856;151.182;2022-07-05T01:35:42;16.10;99.90
20803;DHT22;10562;-33.856;151.182;2022-07-05T01:38:14;16.00;99.90
20803;DHT22;10562;-33.856;151.182;2022-07-05T01:40:46;15.90;99.90
20803;DHT22;10562;-33.856;151.182;2022-07-05T01:43:19;15.80;99.90
20803;DHT22;10562;-33.856;151.182;2022-07-05T01:45:50;15.80;99.90
20803;DHT22;10562;-33.856;151.182;2022-07-05T01:48:22;15.70;99.90
20803;DHT22;10562;-33.856;151.182;2022-07-05T01:50:54;15.70;99.90
20803;DHT22;10562;-33.856;151.182;2022-07-05T01:53:29;15.70;99.90
20803;DHT22;10562;-33.856;151.182;2022-07-05T01:56:00;15.70;99.90
20803;DHT22;10562;-33.856;151.182;2022-07-05T01:58:31;15.80;99.90
20803;DHT22;10562;-33.856;151.182;2022-07-05T02:01:03;15.80;99.90
20803;DHT22;10562;-33.856;151.182;2022-07-05T02:03:33;15.80;99.90
20803;DHT22;10562;-33.856;151.182;2022-07-05T02:06:05;15.80;99.90
20803;DHT22;10562;-33.856;151.182;2022-07-05T02:08:39;15.80;99.90
20803;DHT22;10562;-33.856;151.182;2022-07-05T02:11:10;15.80;99.90
20803;DHT22;10562;-33.856;151.182;2022-07-05T02:13:41;15.90;99.90
20803;DHT22;10562;-33.856;151.182;2022-07-05T02:16:12;16.00;99.90
20803;DHT22;10562;-33.856;151.182;2022-07-05T02:18:42;16.00;99.90
20803;DHT22;10562;-33.856;151.182;2022-07-05T02:21:13;16.00;99.90
20803;DHT22;10562;-33.856;151.182;2022-07-05T02:23:46;16.00;99.90
20803;DHT22;10562;-33.856;151.182;2022-07-05T02:26:17;16.10;99.90
20803;DHT22;10562;-33.856;151.182;2022-07-05T02:28:48;16.20;99.90
20803;DHT22;10562;-33.856;151.182;2022-07-05T02:31:19;16.20;99.90
20803;DHT22;10562;-33.856;151.182;2022-07-05T02:33:49;16.20;99.90
20803;DHT22;10562;-33.856;151.182;2022-07-05T02:36:20;16.20;99.90
20803;DHT22;10562;-33.856;151.182;2022-07-05T02:38:53;16.20;99.90
20803;DHT22;10562;-33.856;151.182;2022-07-05T02:41:23;16.00;99.90
20803;DHT22;10562;-33.856;151.182;2022-07-05T02:43:54;15.90;99.90
20803;DHT22;10562;-33.856;151.182;2022-07-05T02:46:25;15.90;99.90
20803;DHT22;10562;-33.856;151.182;2022-07-05T02:48:56;15.80;99.90
20803;DHT22;10562;-33.856;151.182;2022-07-05T02:51:27;15.80;99.90
20803;DHT22;10562;-33.856;151.182;2022-07-05T02:53:59;15.80;99.90
20803;DHT22;10562;-33.856;151.182;2022-07-05T02:56:30;15.80;99.90
20803;DHT22;10562;-33.856;151.182;2022-07-05T02:59:01;15.80;99.90
20803;DHT22;10562;-33.856;151.182;2022-07-05T03:01:33;15.80;99.90
20803;DHT22;10562;-33.856;151.182;2022-07-05T03:04:04;15.80;99.90
20803;DHT22;10562;-33.856;151.182;2022-07-05T03:06:37;15.80;99.90
20803;DHT22;10562;-33.856;151.182;2022-07-05T03:09:10;15.70;99.90
20803;DHT22;10562;-33.856;151.182;2022-07-05T03:11:41;15.70;99.90
20803;DHT22;10562;-33.856;151.182;2022-07-05T03:14:12;15.70;99.90
20803;DHT22;10562;-33.856;151.182;2022-07-05T03:16:43;15.70;99.90
20803;DHT22;10562;-33.856;151.182;2022-07-05T03:19:14;15.60;99.90
20803;DHT22;10562;-33.856;151.182;2022-07-05T03:21:45;15.60;99.90
20803;DHT22;10562;-33.856;151.182;2022-07-05T03:24:17;15.60;99.90
20803;DHT22;10562;-33.856;151.182;2022-07-05T03:26:48;15.60;99.90
20803;DHT22;10562;-33.856;151.182;2022-07-05T03:29:19;15.60;99.90
20803;DHT22;10562;-33.856;151.182;2022-07-05T03:31:49;15.60;99.90
20803;DHT22;10562;-33.856;151.182;2022-07-05T03:34:20;15.60;99.90
20803;DHT22;10562;-33.856;151.182;2022-07-05T03:36:51;15.70;99.90
20803;DHT22;10562;-33.856;151.182;2022-07-05T03:39:23;15.80;99.90
20803;DHT22;10562;-33.856;151.182;2022-07-05T03:41:54;15.90;99.90
20803;DHT22;10562;-33.856;151.182;2022-07-05T03:44:25;16.00;99.90
20803;DHT22;10562;-33.856;151.182;2022-07-05T03:46:56;16.00;99.90
20803;DHT22;10562;-33.856;151.182;2022-07-05T03:49:27;16.00;99.90
20803;DHT22;10562;-33.856;151.182;2022-07-05T03:51:58;16.00;99.90
20803;DHT22;10562;-33.856;151.182;2022-07-05T03:54:30;16.00;99.90
20803;DHT22;10562;-33.856;151.182;2022-07-05T03:57:01;16.00;99.90
20803;DHT22;10562;-33.856;151.182;2022-07-05T03:59:32;16.00;99.90
20803;DHT22;10562;-33.856;151.182;2022-07-05T04:02:03;16.00;99.90
20803;DHT22;10562;-33.856;151.182;2022-07-05T04:04:34;16.00;99.90
20803;DHT22;10562;-33.856;151.182;2022-07-05T04:07:05;16.10;99.90
20803;DHT22;10562;-33.856;151.182;2022-07-05T04:09:38;16.10;99.90
20803;DHT22;10562;-33.856;151.182;2022-07-05T04:12:09;16.00;99.90
20803;DHT22;10562;-33.856;151.182;2022-07-05T04:14:40;15.90;99.90
20803;DHT22;10562;-33.856;151.182;2022-07-05T04:17:10;15.80;99.90
20803;DHT22;10562;-33.856;151.182;2022-07-05T04:19:41;15.80;99.90
20803;DHT22;10562;-33.856;151.182;2022-07-05T04:22:12;15.90;99.90
20803;DHT22;10562;-33.856;151.182;2022-07-05T04:24:45;15.90;99.90
20803;DHT22;10562;-33.856;151.182;2022-07-05T04:27:31;16.00;99.90
20803;DHT22;10562;-33.856;151.182;2022-07-05T04:30:02;16.00;99.90
20803;DHT22;10562;-33.856;151.182;2022-07-05T04:32:35;16.10;99.90
20803;DHT22;10562;-33.856;151.182;2022-07-05T04:35:06;16.10;99.90
20803;DHT22;10562;-33.856;151.182;2022-07-05T04:37:38;16.10;99.90
20803;DHT22;10562;-33.856;151.182;2022-07-05T04:40:14;16.20;99.90
20803;DHT22;10562;-33.856;151.182;2022-07-05T04:42:44;16.20;99.90
20803;DHT22;10562;-33.856;151.182;2022-07-05T04:45:15;16.30;99.90
20803;DHT22;10562;-33.856;151.182;2022-07-05T04:47:46;16.30;99.90
20803;DHT22;10562;-33.856;151.182;2022-07-05T04:50:17;16.40;99.90
20803;DHT22;10562;-33.856;151.182;2022-07-05T04:52:48;16.40;99.90
20803;DHT22;10562;-33.856;151.182;2022-07-05T04:55:20;16.50;99.90
20803;DHT22;10562;-33.856;151.182;2022-07-05T04:57:51;16.40;99.90
20803;DHT22;10562;-33.856;151.182;2022-07-05T05:00:22;16.30;99.90
20803;DHT22;10562;-33.856;151.182;2022-07-05T05:02:53;16.30;99.90
20803;DHT22;10562;-33.856;151.182;2022-07-05T05:05:24;16.30;99.90
20803;DHT22;10562;-33.856;151.182;2022-07-05T05:07:54;16.20;99.90
20803;DHT22;10562;-33.856;151.182;2022-07-05T05:10:27;16.20;99.90
20803;DHT22;10562;-33.856;151.182;2022-07-05T05:12:58;16.30;99.90
20803;DHT22;10562;-33.856;151.182;2022-07-05T05:15:29;16.30;99.90
20803;DHT22;10562;-33.856;151.182;2022-07-05T05:18:00;16.30;99.90
20803;DHT22;10562;-33.856;151.182;2022-07-05T05:20:30;16.30;99.90
20803;DHT22;10562;-33.856;151.182;2022-07-05T05:23:01;16.30;99.90
20803;DHT22;10562;-33.856;151.182;2022-07-05T05:25:34;16.20;99.90
20803;DHT22;10562;-33.856;151.182;2022-07-05T05:28:05;16.20;99.90
20803;DHT22;10562;-33.856;151.182;2022-07-05T05:30:36;16.20;99.90
20803;DHT22;10562;-33.856;151.182;2022-07-05T05:33:06;16.20;99.90
20803;DHT22;10562;-33.856;151.182;2022-07-05T05:35:37;16.20;99.90
20803;DHT22;10562;-33.856;151.182;2022-07-05T05:38:08;16.30;99.90
20803;DHT22;10562;-33.856;151.182;2022-07-05T05:40:40;16.30;99.90
20803;DHT22;10562;-33.856;151.182;2022-07-05T05:43:12;16.30;99.90
20803;DHT22;10562;-33.856;151.182;2022-07-05T05:45:42;16.20;99.90
20803;DHT22;10562;-33.856;151.182;2022-07-05T05:48:13;16.20;99.90
20803;DHT22;10562;-33.856;151.182;2022-07-05T05:50:44;16.30;99.90
20803;DHT22;10562;-33.856;151.182;2022-07-05T05:53:15;16.30;99.90
20803;DHT22;10562;-33.856;151.182;2022-07-05T05:55:48;16.30;99.90
20803;DHT22;10562;-33.856;151.182;2022-07-05T05:58:19;16.30;99.90
20803;DHT22;10562;-33.856;151.182;2022-07-05T06:00:51;16.30;99.90
20803;DHT22;10562;-33.856;151.182;2022-07-05T06:03:23;16.40;99.90
20803;DHT22;10562;-33.856;151.182;2022-07-05T06:05:54;16.40;99.90
20803;DHT22;10562;-33.856;151.182;2022-07-05T06:08:25;16.30;99.90
20803;DHT22;10562;-33.856;151.182;2022-07-05T06:10:57;16.30;99.90
20803;DHT22;10562;-33.856;151.182;2022-07-05T06:13:32;16.30;99.90
20803;DHT22;10562;-33.856;151.182;2022-07-05T06:16:02;16.30;99.90
20803;DHT22;10562;-33.856;151.182;2022-07-05T06:18:33;16.20;99.90
20803;DHT22;10562;-33.856;151.182;2022-07-05T06:21:04;16.20;99.90
20803;DHT22;10562;-33.856;151.182;2022-07-05T06:23:35;16.20;99.90
20803;DHT22;10562;-33.856;151.182;2022-07-05T06:26:08;16.20;99.90
20803;DHT22;10562;-33.856;151.182;2022-07-05T06:28:39;16.20;99.90
20803;DHT22;10562;-33.856;151.182;2022-07-05T06:31:09;16.20;99.90
20803;DHT22;10562;-33.856;151.182;2022-07-05T06:33:40;16.10;99.90
20803;DHT22;10562;-33.856;151.182;2022-07-05T06:36:11;16.10;99.90
20803;DHT22;10562;-33.856;151.182;2022-07-05T06:38:42;16.10;99.90
20803;DHT22;10562;-33.856;151.182;2022-07-05T06:41:14;16.10;99.90
20803;DHT22;10562;-33.856;151.182;2022-07-05T06:43:45;16.10;99.90
20803;DHT22;10562;-33.856;151.182;2022-07-05T06:46:16;16.00;99.90
20803;DHT22;10562;-33.856;151.182;2022-07-05T06:48:46;16.00;99.90
20803;DHT22;10562;-33.856;151.182;2022-07-05T06:51:17;16.00;99.90
20803;DHT22;10562;-33.856;151.182;2022-07-05T06:53:49;16.10;99.90
20803;DHT22;10562;-33.856;151.182;2022-07-05T06:56:22;16.10;99.90
20803;DHT22;10562;-33.856;151.182;2022-07-05T06:58:52;16.00;99.90
20803;DHT22;10562;-33.856;151.182;2022-07-05T07:01:23;16.00;99.90
20803;DHT22;10562;-33.856;151.182;2022-07-05T07:03:54;15.90;99.90
20803;DHT22;10562;-33.856;151.182;2022-07-05T07:06:25;15.80;99.90
20803;DHT22;10562;-33.856;151.182;2022-07-05T07:08:55;15.70;99.90
20803;DHT22;10562;-33.856;151.182;2022-07-05T07:11:44;15.60;99.90
20803;DHT22;10562;-33.856;151.182;2022-07-05T07:14:15;15.60;99.90
20803;DHT22;10562;-33.856;151.182;2022-07-05T07:16:46;15.50;99.90
20803;DHT22;10562;-33.856;151.182;2022-07-05T07:19:16;15.50;99.90
20803;DHT22;10562;-33.856;151.182;2022-07-05T07:21:47;15.50;99.90
20803;DHT22;10562;-33.856;151.182;2022-07-05T07:24:18;15.50;99.90
20803;DHT22;10562;-33.856;151.182;2022-07-05T07:26:51;15.50;99.90
20803;DHT22;10562;-33.856;151.182;2022-07-05T07:29:34;15.50;99.90
20803;DHT22;10562;-33.856;151.182;2022-07-05T07:32:07;15.50;99.90
20803;DHT22;10562;-33.856;151.182;2022-07-05T07:34:38;15.50;99.90
20803;DHT22;10562;-33.856;151.182;2022-07-05T07:37:09;15.50;99.90
20803;DHT22;10562;-33.856;151.182;2022-07-05T07:39:41;15.60;99.90
20803;DHT22;10562;-33.856;151.182;2022-07-05T07:42:13;15.60;99.90
20803;DHT22;10562;-33.856;151.182;2022-07-05T07:44:44;15.70;99.90
20803;DHT22;10562;-33.856;151.182;2022-07-05T07:47:15;15.70;99.90
20803;DHT22;10562;-33.856;151.182;2022-07-05T07:49:46;15.70;99.90
20803;DHT22;10562;-33.856;151.182;2022-07-05T07:52:17;15.70;99.90
20803;DHT22;10562;-33.856;151.182;2022-07-05T07:54:47;15.80;99.90
20803;DHT22;10562;-33.856;151.182;2022-07-05T07:57:20;15.80;99.90
20803;DHT22;10562;-33.856;151.182;2022-07-05T07:59:51;15.80;99.90
20803;DHT22;10562;-33.856;151.182;2022-07-05T08:02:22;15.90;99.90
20803;DHT22;10562;-33.856;151.182;2022-07-05T08:04:53;16.00;99.90
20803;DHT22;10562;-33.856;151.182;2022-07-05T08:07:25;16.00;99.90
20803;DHT22;10562;-33.856;151.182;2022-07-05T08:09:56;16.00;99.90
20803;DHT22;10562;-33.856;151.182;2022-07-05T08:12:29;15.90;99.90
20803;DHT22;10562;-33.856;151.182;2022-07-05T08:15:00;15.90;99.90
20803;DHT22;10562;-33.856;151.182;2022-07-05T08:17:30;15.90;99.90
20803;DHT22;10562;-33.856;151.182;2022-07-05T08:20:01;16.00;99.90
20803;DHT22;10562;-33.856;151.182;2022-07-05T08:22:50;15.90;99.90
20803;DHT22;10562;-33.856;151.182;2022-07-05T08:25:21;15.80;99.90
20803;DHT22;10562;-33.856;151.182;2022-07-05T08:27:54;15.70;99.90
20803;DHT22;10562;-33.856;151.182;2022-07-05T08:30:25;15.60;99.90
20803;DHT22;10562;-33.856;151.182;2022-07-05T08:32:56;15.50;99.90
20803;DHT22;10562;-33.856;151.182;2022-07-05T08:35:27;15.50;99.90
20803;DHT22;10562;-33.856;151.182;2022-07-05T08:37:58;15.60;99.90
20803;DHT22;10562;-33.856;151.182;2022-07-05T08:40:31;15.60;99.90
20803;DHT22;10562;-33.856;151.182;2022-07-05T08:43:06;15.70;99.90
20803;DHT22;10562;-33.856;151.182;2022-07-05T08:45:38;15.70;99.90
20803;DHT22;10562;-33.856;151.182;2022-07-05T08:48:10;15.70;99.90
20803;DHT22;10562;-33.856;151.182;2022-07-05T08:50:41;15.70;99.90
20803;DHT22;10562;-33.856;151.182;2022-07-05T08:53:14;15.70;99.90
20803;DHT22;10562;-33.856;151.182;2022-07-05T08:55:46;15.80;99.90
20803;DHT22;10562;-33.856;151.182;2022-07-05T08:58:18;15.80;99.90
20803;DHT22;10562;-33.856;151.182;2022-07-05T09:00:49;15.90;99.90
20803;DHT22;10562;-33.856;151.182;2022-07-05T09:03:22;15.90;99.90
20803;DHT22;10562;-33.856;151.182;2022-07-05T09:05:56;16.00;99.90
20803;DHT22;10562;-33.856;151.182;2022-07-05T09:08:28;15.90;99.90
20803;DHT22;10562;-33.856;151.182;2022-07-05T09:11:02;15.90;99.90
20803;DHT22;10562;-33.856;151.182;2022-07-05T09:13:37;15.80;99.90
20803;DHT22;10562;-33.856;151.182;2022-07-05T09:16:09;15.70;99.90
20803;DHT22;10562;-33.856;151.182;2022-07-05T09:18:44;15.70;99.90
20803;DHT22;10562;-33.856;151.182;2022-07-05T09:21:17;15.70;99.90
20803;DHT22;10562;-33.856;151.182;2022-07-05T09:23:55;15.80;99.90
20803;DHT22;10562;-33.856;151.182;2022-07-05T09:26:32;15.80;99.90
20803;DHT22;10562;-33.856;151.182;2022-07-05T09:29:06;15.80;99.90
20803;DHT22;10562;-33.856;151.182;2022-07-05T09:31:38;15.90;99.90
20803;DHT22;10562;-33.856;151.182;2022-07-05T09:34:10;16.00;99.90
20803;DHT22;10562;-33.856;151.182;2022-07-05T09:36:52;16.00;99.90
20803;DHT22;10562;-33.856;151.182;2022-07-05T09:39:39;15.90;99.90
20803;DHT22;10562;-33.856;151.182;2022-07-05T09:42:14;15.90;99.90
20803;DHT22;10562;-33.856;151.182;2022-07-05T09:44:48;15.90;99.90
20803;DHT22;10562;-33.856;151.182;2022-07-05T09:47:21;15.90;99.90
20803;DHT22;10562;-33.856;151.182;2022-07-05T09:49:53;15.90;99.90
20803;DHT22;10562;-33.856;151.182;2022-07-05T09:52:28;16.00;99.90
20803;DHT22;10562;-33.856;151.182;2022-07-05T09:55:04;16.00;99.90
20803;DHT22;10562;-33.856;151.182;2022-07-05T09:57:36;16.00;99.90
20803;DHT22;10562;-33.856;151.182;2022-07-05T10:00:10;16.00;99.90
20803;DHT22;10562;-33.856;151.182;2022-07-05T10:02:42;15.90;99.90
20803;DHT22;10562;-33.856;151.182;2022-07-05T10:05:14;15.90;99.90
20803;DHT22;10562;-33.856;151.182;2022-07-05T10:07:46;15.80;99.90
20803;DHT22;10562;-33.856;151.182;2022-07-05T10:10:18;15.80;99.90
20803;DHT22;10562;-33.856;151.182;2022-07-05T10:12:50;15.80;99.90
20803;DHT22;10562;-33.856;151.182;2022-07-05T10:15:25;15.80;99.90
20803;DHT22;10562;-33.856;151.182;2022-07-05T10:17:59;15.80;99.90
20803;DHT22;10562;-33.856;151.182;2022-07-05T10:20:34;15.90;99.90
20803;DHT22;10562;-33.856;151.182;2022-07-05T10:23:10;15.80;99.90
20803;DHT22;10562;-33.856;151.182;2022-07-05T10:25:43;15.90;99.90
20803;DHT22;10562;-33.856;151.182;2022-07-05T10:28:16;15.90;99.90
20803;DHT22;10562;-33.856;151.182;2022-07-05T10:30:49;16.00;99.90
20803;DHT22;10562;-33.856;151.182;2022-07-05T10:33:22;16.00;99.90
20803;DHT22;10562;-33.856;151.182;2022-07-05T10:35:55;16.00;99.90
20803;DHT22;10562;-33.856;151.182;2022-07-05T10:38:26;15.90;99.90
20803;DHT22;10562;-33.856;151.182;2022-07-05T10:41:01;15.90;99.90
20803;DHT22;10562;-33.856;151.182;2022-07-05T10:43:33;15.90;99.90
20803;DHT22;10562;-33.856;151.182;2022-07-05T10:46:06;15.90;99.90
20803;DHT22;10562;-33.856;151.182;2022-07-05T10:48:37;15.90;99.90
20803;DHT22;10562;-33.856;151.182;2022-07-05T10:51:15;15.80;99.90
20803;DHT22;10562;-33.856;151.182;2022-07-05T10:54:04;15.80;99.90
20803;DHT22;10562;-33.856;151.182;2022-07-05T10:56:35;15.70;99.90
20803;DHT22;10562;-33.856;151.182;2022-07-05T10:59:08;15.70;99.90
20803;DHT22;10562;-33.856;151.182;2022-07-05T11:01:43;15.70;99.90
20803;DHT22;10562;-33.856;151.182;2022-07-05T11:07:02;15.70;99.90
20803;DHT22;10562;-33.856;151.182;2022-07-05T11:09:35;15.50;99.90
20803;DHT22;10562;-33.856;151.182;2022-07-05T11:12:08;15.50;99.90
20803;DHT22;10562;-33.856;151.182;2022-07-05T11:14:44;15.50;99.90
20803;DHT22;10562;-33.856;151.182;2022-07-05T11:17:20;15.50;99.90
20803;DHT22;10562;-33.856;151.182;2022-07-05T11:20:06;15.60;99.90
20803;DHT22;10562;-33.856;151.182;2022-07-05T11:22:38;15.60;99.90
20803;DHT22;10562;-33.856;151.182;2022-07-05T11:25:11;15.60;99.90
20803;DHT22;10562;-33.856;151.182;2022-07-05T11:28:00;15.60;99.90
20803;DHT22;10562;-33.856;151.182;2022-07-05T11:30:45;15.60;99.90
20803;DHT22;10562;-33.856;151.182;2022-07-05T11:33:35;15.60;99.90
20803;DHT22;10562;-33.856;151.182;2022-07-05T11:36:07;15.70;99.90
20803;DHT22;10562;-33.856;151.182;2022-07-05T11:39:23;15.70;99.90
20803;DHT22;10562;-33.856;151.182;2022-07-05T11:41:54;15.80;99.90
20803;DHT22;10562;-33.856;151.182;2022-07-05T11:44:24;15.70;99.90
20803;DHT22;10562;-33.856;151.182;2022-07-05T11:47:02;15.70;99.90
20803;DHT22;10562;-33.856;151.182;2022-07-05T11:49:35;15.60;99.90
20803;DHT22;10562;-33.856;151.182;2022-07-05T11:52:07;15.60;99.90
20803;DHT22;10562;-33.856;151.182;2022-07-05T11:54:38;15.70;99.90
20803;DHT22;10562;-33.856;151.182;2022-07-05T11:57:09;15.70;99.90
20803;DHT22;10562;-33.856;151.182;2022-07-05T11:59:42;15.70;99.90
20803;DHT22;10562;-33.856;151.182;2022-07-05T12:02:12;15.70;99.90
20803;DHT22;10562;-33.856;151.182;2022-07-05T12:04:48;15.70;99.90
20803;DHT22;10562;-33.856;151.182;2022-07-05T12:07:28;15.70;99.90
20803;DHT22;10562;-33.856;151.182;2022-07-05T12:09:59;15.70;99.90
20803;DHT22;10562;-33.856;151.182;2022-07-05T12:12:46;15.70;99.90
20803;DHT22;10562;-33.856;151.182;2022-07-05T12:15:19;15.70;99.90
20803;DHT22;10562;-33.856;151.182;2022-07-05T12:17:50;15.70;99.90
20803;DHT22;10562;-33.856;151.182;2022-07-05T12:20:24;15.60;99.90
20803;DHT22;10562;-33.856;151.182;2022-07-05T12:22:55;15.50;99.90
20803;DHT22;10562;-33.856;151.182;2022-07-05T12:25:28;15.50;99.90
20803;DHT22;10562;-33.856;151.182;2022-07-05T12:28:00;15.40;99.90
20803;DHT22;10562;-33.856;151.182;2022-07-05T12:30:32;15.40;99.90
20803;DHT22;10562;-33.856;151.182;2022-07-05T12:33:05;15.20;99.90
20803;DHT22;10562;-33.856;151.182;2022-07-05T12:35:40;15.10;99.90
20803;DHT22;10562;-33.856;151.182;2022-07-05T12:38:12;15.00;99.90
20803;DHT22;10562;-33.856;151.182;2022-07-05T12:40:45;15.00;99.90
20803;DHT22;10562;-33.856;151.182;2022-07-05T12:43:17;14.90;99.90
20803;DHT22;10562;-33.856;151.182;2022-07-05T12:46:01;14.80;99.90
20803;DHT22;10562;-33.856;151.182;2022-07-05T12:48:33;14.70;99.90
20803;DHT22;10562;-33.856;151.182;2022-07-05T12:51:07;14.70;99.90
20803;DHT22;10562;-33.856;151.182;2022-07-05T12:53:46;14.70;99.90
20803;DHT22;10562;-33.856;151.182;2022-07-05T12:56:32;14.70;99.90
20803;DHT22;10562;-33.856;151.182;2022-07-05T12:59:20;14.70;99.90
20803;DHT22;10562;-33.856;151.182;2022-07-05T13:01:52;14.60;99.90
20803;DHT22;10562;-33.856;151.182;2022-07-05T13:04:23;14.50;99.90
20803;DHT22;10562;-33.856;151.182;2022-07-05T13:06:56;14.50;99.90
20803;DHT22;10562;-33.856;151.182;2022-07-05T13:09:35;14.40;99.90
20803;DHT22;10562;-33.856;151.182;2022-07-05T13:12:13;14.40;99.90
20803;DHT22;10562;-33.856;151.182;2022-07-05T13:14:44;14.40;99.90
20803;DHT22;10562;-33.856;151.182;2022-07-05T13:17:16;14.30;99.90
20803;DHT22;10562;-33.856;151.182;2022-07-05T13:19:49;14.30;99.90
20803;DHT22;10562;-33.856;151.182;2022-07-05T13:22:22;14.40;99.90
20803;DHT22;10562;-33.856;151.182;2022-07-05T13:24:53;14.40;99.90
20803;DHT22;10562;-33.856;151.182;2022-07-05T13:27:24;14.40;99.90
20803;DHT22;10562;-33.856;151.182;2022-07-05T13:29:55;14.40;99.90
20803;DHT22;10562;-33.856;151.182;2022-07-05T13:32:26;14.50;99.90
20803;DHT22;10562;-33.856;151.182;2022-07-05T13:34:57;14.40;99.90
20803;DHT22;10562;-33.856;151.182;2022-07-05T13:37:30;14.50;99.90
20803;DHT22;10562;-33.856;151.182;2022-07-05T13:40:01;14.50;99.90
20803;DHT22;10562;-33.856;151.182;2022-07-05T13:42:31;14.50;99.90
20803;DHT22;10562;-33.856;151.182;2022-07-05T13:45:02;14.60;99.90
20803;DHT22;10562;-33.856;151.182;2022-07-05T13:47:36;14.60;99.90
20803;DHT22;10562;-33.856;151.182;2022-07-05T13:50:07;14.60;99.90
20803;DHT22;10562;-33.856;151.182;2022-07-05T13:52:55;14.60;99.90
20803;DHT22;10562;-33.856;151.182;2022-07-05T13:55:26;14.60;99.90
20803;DHT22;10562;-33.856;151.182;2022-07-05T13:57:57;14.70;99.90
20803;DHT22;10562;-33.856;151.182;2022-07-05T14:00:28;14.80;99.90
20803;DHT22;10562;-33.856;151.182;2022-07-05T14:02:58;14.80;99.90
20803;DHT22;10562;-33.856;151.182;2022-07-05T14:05:29;14.70;99.90
20803;DHT22;10562;-33.856;151.182;2022-07-05T14:08:02;14.70;99.90
20803;DHT22;10562;-33.856;151.182;2022-07-05T14:10:33;14.80;99.90
20803;DHT22;10562;-33.856;151.182;2022-07-05T14:13:04;14.80;99.90
20803;DHT22;10562;-33.856;151.182;2022-07-05T14:15:35;14.80;99.90
20803;DHT22;10562;-33.856;151.182;2022-07-05T14:18:05;14.70;99.90
20803;DHT22;10562;-33.856;151.182;2022-07-05T14:20:37;14.80;99.90
20803;DHT22;10562;-33.856;151.182;2022-07-05T14:23:10;14.70;99.90
20803;DHT22;10562;-33.856;151.182;2022-07-05T14:25:42;14.70;99.90
20803;DHT22;10562;-33.856;151.182;2022-07-05T14:28:13;14.70;99.90
20803;DHT22;10562;-33.856;151.182;2022-07-05T14:30:45;14.60;99.90
20803;DHT22;10562;-33.856;151.182;2022-07-05T14:33:16;14.50;99.90
20803;DHT22;10562;-33.856;151.182;2022-07-05T14:35:48;14.50;99.90
20803;DHT22;10562;-33.856;151.182;2022-07-05T14:38:21;14.50;99.90
20803;DHT22;10562;-33.856;151.182;2022-07-05T14:40:51;14.50;99.90
20803;DHT22;10562;-33.856;151.182;2022-07-05T14:43:22;14.50;99.90
20803;DHT22;10562;-33.856;151.182;2022-07-05T14:45:53;14.40;99.90
20803;DHT22;10562;-33.856;151.182;2022-07-05T14:48:25;14.40;99.90
20803;DHT22;10562;-33.856;151.182;2022-07-05T14:50:56;14.40;99.90
20803;DHT22;10562;-33.856;151.182;2022-07-05T14:53:28;14.40;99.90
20803;DHT22;10562;-33.856;151.182;2022-07-05T14:55:59;14.30;99.90
20803;DHT22;10562;-33.856;151.182;2022-07-05T14:58:30;14.20;99.90
20803;DHT22;10562;-33.856;151.182;2022-07-05T15:01:01;14.20;99.90
20803;DHT22;10562;-33.856;151.182;2022-07-05T15:03:32;14.30;99.90
20803;DHT22;10562;-33.856;151.182;2022-07-05T15:06:06;14.40;99.90
20803;DHT22;10562;-33.856;151.182;2022-07-05T15:08:39;14.30;99.90
20803;DHT22;10562;-33.856;151.182;2022-07-05T15:11:09;14.30;99.90
20803;DHT22;10562;-33.856;151.182;2022-07-05T15:13:40;14.30;99.90
20803;DHT22;10562;-33.856;151.182;2022-07-05T15:16:11;14.20;99.90
20803;DHT22;10562;-33.856;151.182;2022-07-05T15:18:42;14.20;99.90
20803;DHT22;10562;-33.856;151.182;2022-07-05T15:21:12;14.20;99.90
20803;DHT22;10562;-33.856;151.182;2022-07-05T15:23:45;14.10;99.90